Time;durP1;ratioP1;P1;durP2;ratioP2;P2;SDS_P1;SDS_P2;PMS_P1;PMS_P2;Temp;Humidity;BMP_temperature;BMP_pressure;BME280_temperature;BME280_humidity;BME280_pressure;Samples;Min_cycle;Max_cycle;Signal;HPM_P1;HPM_P2
2023/06/28 00:01:55;;;;;;;0.10;0.10;;;;;;;14.32;76.49;97590.44;4981940;28;20042;-76
2023/06/28 00:04:22;;;;;;;0.10;0.10;;;;;;;14.09;77.77;97589.38;4983518;28;20145;-76
2023/06/28 00:06:50;;;;;;;0.43;0.43;;;;;;;14.26;76.95;97593.16;4982194;28;20565;-76
2023/06/28 00:09:18;;;;;;;0.10;0.10;;;;;;;14.02;78.36;97596.63;4982678;28;20108;-76
2023/06/28 00:11:45;;;;;;;0.08;0.08;;;;;;;14.07;78.47;97594.13;4983515;28;20142;-76
2023/06/28 00:14:13;;;;;;;0.10;0.10;;;;;;;14.05;77.96;97596.19;4983620;28;20055;-76
2023/06/28 00:16:41;;;;;;;0.10;0.10;;;;;;;14.12;76.90;97599.69;4980942;28;20056;-76
2023/06/28 00:19:10;;;;;;;0.10;0.10;;;;;;;14.18;76.24;97599.63;4980615;28;20055;-78
2023/06/28 00:21:38;;;;;;;0.10;0.10;;;;;;;14.05;76.65;97593.50;4983745;28;20050;-77
2023/06/28 00:24:06;;;;;;;0.20;0.20;;;;;;;14.10;76.86;97596.38;4982223;28;20125;-76
2023/06/28 00:26:34;;;;;;;0.10;0.10;;;;;;;14.00;77.69;97601.41;4981608;28;20125;-74
2023/06/28 00:29:04;;;;;;;0.10;0.10;;;;;;;14.12;76.94;97600.47;4982360;28;20046;-74
2023/06/28 00:31:32;;;;;;;0.10;0.10;;;;;;;14.05;77.49;97604.25;4985188;28;20565;-74
2023/06/28 00:34:00;;;;;;;0.10;0.10;;;;;;;14.24;75.95;97604.09;4987054;28;20073;-74
2023/06/28 00:36:31;;;;;;;0.00;0.00;;;;;;;14.09;76.81;97597.41;4991328;28;20521;-75
2023/06/28 00:39:03;;;;;;;0.10;0.10;;;;;;;14.08;77.41;97603.81;4986710;28;20046;-74
2023/06/28 00:41:31;;;;;;;0.30;0.30;;;;;;;14.07;77.31;97600.31;5001736;28;20038;-74
2023/06/28 00:44:01;;;;;;;0.10;0.10;;;;;;;13.91;77.50;97608.88;4984741;28;20042;-74
2023/06/28 00:46:28;;;;;;;0.15;0.15;;;;;;;13.94;77.42;97606.56;4985856;28;20057;-74
2023/06/28 00:48:56;;;;;;;0.10;0.10;;;;;;;13.86;77.61;97597.97;4985310;28;20042;-74
2023/06/28 00:51:23;;;;;;;0.10;0.10;;;;;;;13.74;78.38;97600.50;4985175;28;20046;-75
2023/06/28 00:53:52;;;;;;;0.10;0.10;;;;;;;13.69;79.03;97608.38;4984608;28;20052;-74
2023/06/28 00:56:20;;;;;;;0.10;0.10;;;;;;;13.76;78.54;97606.47;5000125;28;20050;-75
2023/06/28 00:58:50;;;;;;;0.13;0.13;;;;;;;13.81;78.58;97611.19;4986119;28;20043;-76
2023/06/28 01:01:18;;;;;;;0.10;0.10;;;;;;;13.87;77.64;97608.47;4986292;28;20057;-75
2023/06/28 01:03:50;;;;;;;0.10;0.10;;;;;;;14.14;76.63;97609.13;4986417;28;20038;-75
2023/06/28 01:06:19;;;;;;;0.10;0.10;;;;;;;13.89;76.95;97611.78;4984369;28;20144;-75
2023/06/28 01:08:46;;;;;;;0.20;0.20;;;;;;;13.71;78.87;97614.31;4984789;28;20061;-75
2023/06/28 01:11:16;;;;;;;0.10;0.10;;;;;;;13.77;78.45;97616.19;4984022;28;20046;-76
2023/06/28 01:13:43;;;;;;;0.10;0.10;;;;;;;13.90;77.30;97599.19;4983887;28;20042;-75
2023/06/28 01:16:11;;;;;;;0.15;0.15;;;;;;;13.85;77.55;97596.31;4981526;28;20042;-75
2023/06/28 01:18:39;;;;;;;0.10;0.10;;;;;;;13.66;78.39;97598.06;4997670;28;20046;-75
2023/06/28 01:21:10;;;;;;;0.20;0.20;;;;;;;13.68;78.44;97600.53;4982911;28;20058;-75
2023/06/28 01:23:39;;;;;;;0.10;0.10;;;;;;;13.77;78.05;97602.75;4983477;28;20042;-75
2023/06/28 01:26:07;;;;;;;0.10;0.10;;;;;;;13.86;77.33;97598.78;4982645;28;20050;-75
2023/06/28 01:28:35;;;;;;;0.10;0.10;;;;;;;13.51;78.96;97610.91;4982757;28;20394;-75
2023/06/28 01:31:03;;;;;;;0.10;0.10;;;;;;;13.60;78.16;97605.09;4983763;28;20054;-75
2023/06/28 01:33:33;;;;;;;0.03;0.03;;;;;;;13.54;78.41;97613.19;4983552;28;20134;-75
2023/06/28 01:36:01;;;;;;;0.10;0.10;;;;;;;13.74;77.94;97615.78;4983255;28;20057;-76
2023/06/28 01:38:29;;;;;;;0.10;0.10;;;;;;;13.63;77.72;97611.06;4982791;28;20046;-76
2023/06/28 01:40:59;;;;;;;0.20;0.20;;;;;;;13.59;78.13;97606.16;4982930;28;20125;-75
2023/06/28 01:43:26;;;;;;;0.10;0.10;;;;;;;13.70;77.67;97606.53;4999473;28;20045;-75
2023/06/28 01:45:56;;;;;;;0.10;0.10;;;;;;;13.67;77.80;97615.00;4982071;28;20042;-75
2023/06/28 01:48:24;;;;;;;0.10;0.10;;;;;;;13.40;79.36;97615.09;4983176;28;20042;-75
2023/06/28 01:50:52;;;;;;;0.08;0.08;;;;;;;13.57;78.54;97623.50;4982907;28;20050;-75
2023/06/28 01:53:21;;;;;;;0.10;0.10;;;;;;;13.69;77.50;97613.75;4983594;28;20046;-75
2023/06/28 01:55:48;;;;;;;0.10;0.10;;;;;;;13.46;78.68;97621.47;4983646;28;20039;-75
2023/06/28 01:58:17;;;;;;;0.00;0.00;;;;;;;13.48;78.27;97625.59;4983601;28;20074;-75
2023/06/28 02:00:45;;;;;;;0.10;0.10;;;;;;;13.60;77.40;97615.81;4983535;28;20494;-76
2023/06/28 02:03:12;;;;;;;0.10;0.10;;;;;;;13.51;77.61;97622.47;4984412;28;20405;-75
2023/06/28 02:05:40;;;;;;;0.10;0.10;;;;;;;13.47;77.72;97626.63;4998309;28;20597;-75
2023/06/28 02:08:08;;;;;;;0.10;0.10;;;;;;;13.49;77.84;97621.06;4984061;28;20046;-75
2023/06/28 02:10:35;;;;;;;0.10;0.10;;;;;;;13.46;77.31;97621.47;4983282;28;20070;-75
2023/06/28 02:13:03;;;;;;;0.10;0.10;;;;;;;13.42;77.79;97625.59;4984071;28;20042;-75
2023/06/28 02:15:32;;;;;;;0.10;0.10;;;;;;;13.39;77.20;97628.72;4982818;28;20065;-75
2023/06/28 02:17:59;;;;;;;0.10;0.10;;;;;;;13.39;77.16;97626.84;4982406;28;20070;-75
2023/06/28 02:20:27;;;;;;;0.10;0.10;;;;;;;13.53;76.47;97622.25;4982584;28;20035;-75
2023/06/28 02:22:55;;;;;;;0.20;0.20;;;;;;;13.34;77.13;97634.72;4983131;28;20238;-75
2023/06/28 02:25:22;;;;;;;0.10;0.10;;;;;;;13.27;77.13;97628.56;4985918;28;20056;-75
2023/06/28 02:27:50;;;;;;;0.10;0.10;;;;;;;13.15;77.50;97631.06;4982765;28;20477;-75
2023/06/28 02:30:18;;;;;;;0.10;0.10;;;;;;;13.14;77.33;97640.13;4982473;28;20061;-75
2023/06/28 02:32:47;;;;;;;0.10;0.10;;;;;;;12.99;77.70;97639.50;4983684;28;20050;-74
2023/06/28 02:35:18;;;;;;;0.10;0.10;;;;;;;12.91;78.46;97634.34;4982682;28;20057;-75
2023/06/28 02:37:46;;;;;;;0.10;0.10;;;;;;;12.88;78.65;97640.13;4982663;28;20050;-75
2023/06/28 02:40:14;;;;;;;0.20;0.20;;;;;;;12.94;77.75;97642.00;4981299;28;20046;-74
2023/06/28 02:42:42;;;;;;;0.10;0.10;;;;;;;12.94;77.90;97644.66;4983013;28;20043;-75
2023/06/28 02:45:10;;;;;;;0.20;0.20;;;;;;;12.86;78.17;97653.75;4980923;28;20117;-74
2023/06/28 02:47:38;;;;;;;0.10;0.10;;;;;;;12.93;77.56;97647.56;4982293;28;20604;-75
2023/06/28 02:50:09;;;;;;;0.00;0.00;;;;;;;12.84;77.96;97645.09;4983490;28;20042;-75
2023/06/28 02:52:48;;;;;;;0.10;0.10;;;;;;;12.79;78.42;97641.38;4981011;28;20043;-74
2023/06/28 02:55:15;;;;;;;0.20;0.20;;;;;;;12.77;78.46;97649.59;5004096;28;20405;-75
2023/06/28 02:57:43;;;;;;;0.10;0.10;;;;;;;12.81;78.04;97644.66;4997731;28;20046;-74
2023/06/28 03:00:15;;;;;;;0.10;0.10;;;;;;;12.83;78.26;97643.44;4982382;28;20047;-74
2023/06/28 03:02:42;;;;;;;0.10;0.10;;;;;;;12.79;78.28;97646.72;4981468;28;20579;-74
2023/06/28 03:05:12;;;;;;;0.10;0.10;;;;;;;12.72;78.73;97645.91;4982315;28;20117;-75
2023/06/28 03:07:39;;;;;;;0.10;0.10;;;;;;;12.82;78.39;97651.69;4984209;28;20047;-75
2023/06/28 03:10:08;;;;;;;0.20;0.20;;;;;;;12.78;77.99;97645.91;4981579;28;20567;-75
2023/06/28 03:12:36;;;;;;;0.10;0.10;;;;;;;12.86;77.53;97652.94;4983486;28;20047;-75
2023/06/28 03:15:04;;;;;;;0.20;0.20;;;;;;;12.85;77.84;97646.75;4981467;28;20057;-75
2023/06/28 03:17:32;;;;;;;0.00;0.00;;;;;;;12.87;77.81;97644.66;4983174;28;20056;-74
2023/06/28 03:19:59;;;;;;;0.10;0.10;;;;;;;12.87;77.75;97649.22;4981343;28;20054;-74
2023/06/28 03:22:30;;;;;;;0.20;0.20;;;;;;;12.84;77.71;97641.59;4981430;28;20046;-75
2023/06/28 03:24:58;;;;;;;0.10;0.10;;;;;;;12.79;78.77;97652.91;4982024;28;20046;-73
2023/06/28 03:27:27;;;;;;;0.10;0.10;;;;;;;12.70;79.02;97648.78;4982168;28;20046;-74
2023/06/28 03:29:54;;;;;;;0.20;0.20;;;;;;;12.85;78.35;97651.28;4980938;28;20051;-75
2023/06/28 03:32:23;;;;;;;0.10;0.10;;;;;;;12.85;78.47;97646.75;4998379;28;20497;-75
2023/06/28 03:34:51;;;;;;;0.20;0.20;;;;;;;12.94;78.08;97651.88;4982104;28;20045;-75
2023/06/28 03:37:19;;;;;;;0.10;0.10;;;;;;;12.93;78.14;97651.06;4980352;28;20049;-75
2023/06/28 03:39:50;;;;;;;0.10;0.10;;;;;;;12.97;77.78;97651.47;4982836;28;20091;-75
2023/06/28 03:42:18;;;;;;;0.10;0.10;;;;;;;12.96;78.04;97655.19;4982290;28;20057;-75
2023/06/28 03:44:45;;;;;;;0.17;0.17;;;;;;;12.99;77.76;97666.28;4983239;28;20033;-75
2023/06/28 03:47:14;;;;;;;0.10;0.10;;;;;;;12.86;78.27;97659.09;4980496;28;20494;-75
2023/06/28 03:49:42;;;;;;;0.10;0.10;;;;;;;12.88;78.26;97659.69;4982196;28;20046;-75
2023/06/28 03:52:09;;;;;;;0.10;0.10;;;;;;;12.69;79.31;97668.56;4980795;28;20053;-75
2023/06/28 03:54:37;;;;;;;0.20;0.20;;;;;;;12.84;78.41;97661.16;4980744;28;20125;-75
2023/06/28 03:57:06;;;;;;;0.10;0.10;;;;;;;12.87;78.42;97662.63;4982574;28;20042;-75
2023/06/28 03:59:34;;;;;;;0.13;0.13;;;;;;;12.80;78.66;97662.59;4979710;28;20050;-74
2023/06/28 04:02:02;;;;;;;0.20;0.20;;;;;;;12.85;78.79;97675.38;4980537;28;20047;-74
2023/06/28 04:04:30;;;;;;;0.20;0.20;;;;;;;12.74;79.66;97666.13;4982322;28;20054;-75
2023/06/28 04:07:00;;;;;;;0.15;0.15;;;;;;;12.86;78.82;97666.31;4981429;28;20428;-75
2023/06/28 04:09:28;;;;;;;0.10;0.10;;;;;;;12.92;78.86;97672.69;4982042;28;20101;-75
2023/06/28 04:11:56;;;;;;;0.20;0.20;;;;;;;12.93;78.98;97671.66;4982674;28;20043;-74
2023/06/28 04:14:25;;;;;;;0.10;0.10;;;;;;;12.91;78.96;97677.22;4981355;28;20039;-74
2023/06/28 04:16:53;;;;;;;0.10;0.10;;;;;;;12.78;79.89;97678.03;4983127;28;20046;-74
2023/06/28 04:19:20;;;;;;;0.13;0.13;;;;;;;12.77;79.73;97683.63;4982184;28;20053;-74
2023/06/28 04:21:48;;;;;;;0.22;0.22;;;;;;;12.82;79.79;97679.28;4990611;28;20494;-75
2023/06/28 04:24:16;;;;;;;0.20;0.20;;;;;;;12.56;80.50;97683.84;4995600;28;20234;-74
2023/06/28 04:26:44;;;;;;;0.10;0.10;;;;;;;12.57;80.58;97688.94;4992863;28;20072;-74
2023/06/28 04:29:13;;;;;;;0.10;0.10;;;;;;;12.68;80.24;97691.03;4990021;28;20136;-74
2023/06/28 04:31:42;;;;;;;0.10;0.10;;;;;;;12.79;79.78;97687.72;4996019;28;20043;-74
2023/06/28 04:34:09;;;;;;;0.10;0.10;;;;;;;12.88;79.68;97686.50;4987714;28;20043;-74
2023/06/28 04:36:39;;;;;;;0.03;0.03;;;;;;;12.97;78.95;97692.50;4990890;28;20046;-75
2023/06/28 04:39:07;;;;;;;0.20;0.20;;;;;;;12.87;79.17;97692.88;4986364;28;20046;-75
2023/06/28 04:41:35;;;;;;;0.15;0.15;;;;;;;12.84;79.55;97684.44;4985255;28;20038;-74
2023/06/28 04:44:03;;;;;;;0.17;0.17;;;;;;;12.54;80.83;97685.88;4990178;28;20049;-75
2023/06/28 04:46:32;;;;;;;0.10;0.10;;;;;;;12.65;80.52;97679.91;4983314;28;20089;-74
2023/06/28 04:49:01;;;;;;;0.30;0.30;;;;;;;12.84;79.89;97679.09;4990792;28;20049;-74
2023/06/28 04:51:29;;;;;;;0.10;0.10;;;;;;;12.89;79.77;97687.31;4983869;28;20500;-75
2023/06/28 04:53:58;;;;;;;0.10;0.10;;;;;;;13.00;79.79;97693.91;4990204;28;20121;-74
2023/06/28 04:56:28;;;;;;;0.20;0.20;;;;;;;13.12;79.21;97690.38;4987839;28;20119;-75
2023/06/28 04:58:55;;;;;;;0.03;0.03;;;;;;;13.15;79.22;97690.00;4990231;28;20049;-75
2023/06/28 05:01:23;;;;;;;0.10;0.10;;;;;;;13.29;78.81;97687.31;4987223;28;20494;-75
2023/06/28 05:03:51;;;;;;;0.10;0.10;;;;;;;13.53;78.03;97691.97;4991415;28;20046;-75
2023/06/28 05:06:20;;;;;;;0.10;0.10;;;;;;;13.48;78.19;97686.44;4987869;28;20797;-75
2023/06/28 05:08:48;;;;;;;0.20;0.20;;;;;;;13.65;77.78;97686.78;4995474;28;20401;-75
2023/06/28 05:11:15;;;;;;;0.17;0.17;;;;;;;13.65;77.50;97684.94;4984834;28;20085;-75
2023/06/28 05:13:43;;;;;;;0.17;0.17;;;;;;;13.67;77.67;97690.91;4992429;28;20050;-75
2023/06/28 05:16:11;;;;;;;0.00;0.00;;;;;;;13.72;77.74;97683.03;4992283;28;20062;-75
2023/06/28 05:18:38;;;;;;;0.10;0.10;;;;;;;13.67;77.76;97690.09;4990343;28;20043;-76
2023/06/28 05:21:06;;;;;;;0.15;0.15;;;;;;;13.65;78.06;97689.47;4993093;28;20046;-75
2023/06/28 05:23:35;;;;;;;0.13;0.13;;;;;;;13.68;78.24;97683.69;4992027;28;20051;-76
2023/06/28 05:26:03;;;;;;;0.10;0.10;;;;;;;13.70;78.13;97682.47;4996587;28;20171;-75
2023/06/28 05:28:32;;;;;;;0.30;0.30;;;;;;;13.79;78.20;97685.72;4992236;28;20057;-75
2023/06/28 05:31:00;;;;;;;0.10;0.10;;;;;;;13.83;78.20;97686.91;4997060;28;20417;-75
2023/06/28 05:33:28;;;;;;;0.20;0.20;;;;;;;13.88;77.88;97684.44;4994517;28;20038;-75
2023/06/28 05:35:57;;;;;;;0.10;0.10;;;;;;;13.93;78.03;97681.94;4995563;28;20101;-75
2023/06/28 05:38:25;;;;;;;0.10;0.10;;;;;;;14.05;78.31;97672.16;4993030;28;20038;-76
2023/06/28 05:40:55;;;;;;;0.10;0.10;;;;;;;14.09;77.76;97677.94;4999746;28;20053;-75
2023/06/28 05:43:23;;;;;;;0.05;0.05;;;;;;;14.17;77.88;97681.19;4985787;28;20126;-75
2023/06/28 05:45:50;;;;;;;0.10;0.10;;;;;;;14.27;77.63;97672.66;4998158;28;20042;-75
2023/06/28 05:48:18;;;;;;;0.20;0.20;;;;;;;14.29;78.37;97679.47;4996428;28;20056;-75
2023/06/28 05:50:46;;;;;;;0.10;0.10;;;;;;;14.32;77.90;97683.59;4993055;28;20069;-75
2023/06/28 05:53:14;;;;;;;0.20;0.20;;;;;;;14.44;77.97;97679.19;4990092;28;20050;-75
2023/06/28 05:55:42;;;;;;;0.10;0.10;;;;;;;14.54;77.65;97686.75;4992559;28;20038;-75
2023/06/28 05:58:10;;;;;;;0.10;0.10;;;;;;;14.63;77.69;97685.47;4989139;28;20405;-74
2023/06/28 06:00:38;;;;;;;0.10;0.10;;;;;;;14.74;77.42;97671.34;4991369;28;20046;-74
2023/06/28 06:03:06;;;;;;;0.10;0.10;;;;;;;14.91;77.91;97683.19;5002066;28;20052;-75
2023/06/28 06:05:34;;;;;;;0.10;0.10;;;;;;;15.09;76.56;97682.38;4995592;28;20039;-75
2023/06/28 06:08:01;;;;;;;0.10;0.10;;;;;;;15.12;75.97;97683.81;4992428;28;20469;-74
2023/06/28 06:10:30;;;;;;;0.10;0.10;;;;;;;15.13;76.25;97685.47;4989546;28;20039;-75
2023/06/28 06:12:57;;;;;;;0.10;0.10;;;;;;;15.20;76.49;97680.84;4991845;28;20201;-75
2023/06/28 06:15:26;;;;;;;0.10;0.10;;;;;;;15.22;76.36;97681.44;4996636;28;20041;-74
2023/06/28 06:17:54;;;;;;;0.10;0.10;;;;;;;15.22;75.93;97693.03;4993916;28;20470;-76
2023/06/28 06:20:21;;;;;;;0.00;0.00;;;;;;;15.30;76.92;97686.53;4995455;28;20061;-76
2023/06/28 06:22:50;;;;;;;0.10;0.10;;;;;;;15.44;76.64;97693.44;4994867;28;20075;-74
2023/06/28 06:25:18;;;;;;;0.20;0.20;;;;;;;15.53;76.70;97683.19;4992384;28;20050;-74
2023/06/28 06:27:45;;;;;;;0.08;0.08;;;;;;;15.54;75.11;97684.84;4989417;28;20126;-74
2023/06/28 06:30:13;;;;;;;0.10;0.10;;;;;;;15.66;75.89;97689.28;4998080;28;20052;-77
2023/06/28 06:32:42;;;;;;;0.00;0.00;;;;;;;15.72;75.40;97692.94;4988461;28;20101;-77
2023/06/28 06:35:10;;;;;;;0.10;0.10;;;;;;;15.72;75.14;97687.56;4992010;28;20441;-77
2023/06/28 06:37:38;;;;;;;0.10;0.10;;;;;;;15.79;72.36;97691.81;5001669;28;20519;-77
2023/06/28 06:40:07;;;;;;;0.05;0.05;;;;;;;15.91;70.93;97699.13;4988947;28;20046;-77
2023/06/28 06:42:34;;;;;;;0.10;0.10;;;;;;;15.81;70.95;97691.59;4993889;28;20042;-76
2023/06/28 06:45:02;;;;;;;0.10;0.10;;;;;;;15.75;69.47;97687.94;4988033;28;20052;-75
2023/06/28 06:47:29;;;;;;;0.10;0.10;;;;;;;15.51;70.77;97690.66;4993874;28;20050;-76
2023/06/28 06:49:58;;;;;;;0.10;0.10;;;;;;;15.70;69.79;97690.47;4992637;28;20038;-73
2023/06/28 06:52:28;;;;;;;0.10;0.10;;;;;;;15.73;69.54;97690.03;4988824;28;20055;-76
2023/06/28 06:54:56;;;;;;;0.00;0.00;;;;;;;15.74;68.67;97694.38;4991748;28;20121;-77
2023/06/28 06:57:23;;;;;;;0.32;0.32;;;;;;;15.92;68.75;97692.69;4982298;28;20061;-74
2023/06/28 06:59:51;;;;;;;0.15;0.15;;;;;;;16.17;67.99;97690.72;4993882;28;20045;-74
2023/06/28 07:02:19;;;;;;;0.08;0.08;;;;;;;16.25;67.21;97682.31;4994913;28;20104;-76
2023/06/28 07:04:47;;;;;;;0.00;0.00;;;;;;;16.18;66.55;97692.38;4993320;28;20053;-77
2023/06/28 07:07:16;;;;;;;0.00;0.00;;;;;;;16.37;66.04;97682.38;5002947;28;20460;-74
2023/06/28 07:09:44;;;;;;;0.10;0.10;;;;;;;16.48;65.43;97692.38;4993127;28;20043;-76
2023/06/28 07:12:11;;;;;;;0.10;0.10;;;;;;;16.69;64.00;97693.75;4997875;28;20045;-76
2023/06/28 07:14:39;;;;;;;0.10;0.10;;;;;;;16.72;64.06;97690.56;4993308;28;20377;-74
2023/06/28 07:17:06;;;;;;;0.10;0.10;;;;;;;16.60;64.58;97690.53;4996414;28;20100;-74
2023/06/28 07:19:34;;;;;;;0.10;0.10;;;;;;;16.87;62.53;97688.25;5000610;28;20069;-74
2023/06/28 07:22:01;;;;;;;0.10;0.10;;;;;;;16.95;62.63;97687.91;4996829;28;20409;-74
2023/06/28 07:24:30;;;;;;;0.43;0.43;;;;;;;16.85;62.80;97687.66;5000872;28;20046;-74
2023/06/28 07:26:58;;;;;;;0.10;0.10;;;;;;;16.79;62.94;97691.31;4995127;28;20042;-73
2023/06/28 07:29:27;;;;;;;0.10;0.10;;;;;;;16.74;62.61;97697.38;4994341;28;20073;-75
2023/06/28 07:31:55;;;;;;;0.10;0.10;;;;;;;16.63;62.61;97700.03;4987485;28;20121;-75
2023/06/28 07:34:23;;;;;;;0.00;0.00;;;;;;;16.59;63.07;97699.66;4992710;28;20097;-75
2023/06/28 07:36:50;;;;;;;0.08;0.08;;;;;;;16.76;62.48;97706.06;5001017;28;20035;-74
2023/06/28 07:39:18;;;;;;;0.10;0.10;;;;;;;17.01;61.46;97697.78;4995171;28;20057;-76
2023/06/28 07:41:47;;;;;;;0.10;0.10;;;;;;;17.05;60.19;97696.25;4992742;28;20042;-74
2023/06/28 07:44:14;;;;;;;0.10;0.10;;;;;;;17.27;60.12;97696.50;4987784;28;20039;-75
2023/06/28 07:46:42;;;;;;;0.00;0.00;;;;;;;17.54;58.72;97699.56;4990834;28;20038;-74
2023/06/28 07:49:10;;;;;;;0.15;0.15;;;;;;;17.94;57.59;97686.94;4991371;28;20050;-75
2023/06/28 07:51:37;;;;;;;0.10;0.10;;;;;;;17.98;57.34;97693.50;4992633;28;20532;-74
2023/06/28 07:54:05;;;;;;;0.08;0.08;;;;;;;17.74;56.30;97691.94;4988452;28;20053;-75
2023/06/28 07:56:40;;;;;;;0.00;0.00;;;;;;;17.80;57.13;97700.94;4987380;28;20077;-75
2023/06/28 07:59:09;;;;;;;0.10;0.10;;;;;;;17.73;57.23;97695.69;4986943;28;20065;-74
2023/06/28 08:01:36;;;;;;;0.00;0.00;;;;;;;18.08;57.38;97694.75;4992747;28;20061;-74
2023/06/28 08:04:04;;;;;;;0.10;0.10;;;;;;;17.82;57.21;97694.25;4992536;28;20122;-74
2023/06/28 08:06:32;;;;;;;0.00;0.00;;;;;;;17.69;57.69;97690.97;4990618;28;20042;-75
2023/06/28 08:09:00;;;;;;;0.00;0.00;;;;;;;17.63;57.62;97695.47;4992086;28;20410;-75
2023/06/28 08:11:27;;;;;;;0.10;0.10;;;;;;;17.82;57.81;97688.84;4987140;28;20082;-75
2023/06/28 08:13:55;;;;;;;0.00;0.00;;;;;;;17.87;55.42;97691.63;4991027;28;20046;-75
2023/06/28 08:16:24;;;;;;;0.03;0.03;;;;;;;18.27;54.34;97688.91;4990287;28;20038;-75
2023/06/28 08:18:52;;;;;;;0.10;0.10;;;;;;;18.42;54.70;97680.28;4992266;28;20125;-74
2023/06/28 08:21:19;;;;;;;0.03;0.03;;;;;;;18.59;53.73;97683.88;4988849;28;20043;-74
2023/06/28 08:23:47;;;;;;;0.00;0.00;;;;;;;18.92;52.86;97677.69;4986587;28;20478;-75
2023/06/28 08:26:15;;;;;;;0.00;0.00;;;;;;;19.16;52.06;97667.50;4989301;28;20053;-74
2023/06/28 08:28:43;;;;;;;0.10;0.10;;;;;;;18.87;51.32;97674.91;4987626;28;20056;-74
2023/06/28 08:31:29;;;;;;;0.13;0.10;;;;;;;18.63;51.52;97685.03;5000794;28;20042;-74
2023/06/28 08:33:57;;;;;;;0.00;0.00;;;;;;;18.83;51.07;97678.31;4989067;28;20072;-75
2023/06/28 08:36:25;;;;;;;0.03;0.03;;;;;;;19.08;51.85;97681.47;4983887;28;20046;-74
2023/06/28 08:38:52;;;;;;;0.10;0.10;;;;;;;19.05;50.17;97671.94;4992732;28;20108;-74
2023/06/28 08:41:20;;;;;;;0.10;0.10;;;;;;;19.38;48.44;97678.38;4989666;28;20050;-74
2023/06/28 08:43:51;;;;;;;0.00;0.00;;;;;;;18.93;49.00;97687.44;4987680;28;20047;-74
2023/06/28 08:46:19;;;;;;;0.10;0.10;;;;;;;19.12;46.41;97681.75;4991395;28;20050;-74
2023/06/28 08:48:49;;;;;;;0.10;0.10;;;;;;;19.26;47.75;97691.19;4988422;28;20042;-75
2023/06/28 08:51:16;;;;;;;0.10;0.10;;;;;;;19.52;47.38;97684.31;4990436;28;20038;-74
2023/06/28 08:53:45;;;;;;;0.00;0.00;;;;;;;19.76;48.09;97685.72;4987780;28;20050;-74
2023/06/28 08:56:13;;;;;;;0.10;0.10;;;;;;;20.09;48.06;97682.88;4989968;28;20109;-73
2023/06/28 08:58:42;;;;;;;0.10;0.10;;;;;;;20.34;47.66;97686.97;4989934;28;20089;-73
2023/06/28 09:01:09;;;;;;;0.00;0.00;;;;;;;19.92;47.62;97681.31;4993830;28;20046;-73
2023/06/28 09:03:40;;;;;;;0.03;0.03;;;;;;;20.22;48.20;97689.00;4994740;28;20042;-75
2023/06/28 09:06:10;;;;;;;0.00;0.00;;;;;;;20.00;47.45;97681.69;4996182;28;20046;-73
2023/06/28 09:08:37;;;;;;;0.00;0.00;;;;;;;20.09;45.24;97688.31;4995790;28;20056;-76
2023/06/28 09:11:05;;;;;;;0.08;0.08;;;;;;;20.36;44.26;97672.09;4987073;28;20146;-75
2023/06/28 09:13:33;;;;;;;0.00;0.00;;;;;;;20.01;45.07;97679.81;4994791;28;20046;-75
2023/06/28 09:16:01;;;;;;;0.00;0.00;;;;;;;20.50;44.67;97675.22;4994807;28;20141;-76
2023/06/28 09:18:29;;;;;;;0.00;0.00;;;;;;;20.72;44.81;97675.97;4994268;28;20117;-75
2023/06/28 09:20:57;;;;;;;0.10;0.10;;;;;;;20.47;44.71;97679.25;4997261;28;20489;-75
2023/06/28 09:23:27;;;;;;;0.00;0.00;;;;;;;20.20;47.02;97680.28;4993617;28;20470;-75
2023/06/28 09:25:55;;;;;;;0.00;0.00;;;;;;;19.33;48.90;97678.31;4998171;28;20134;-75
2023/06/28 09:28:24;;;;;;;0.05;0.05;;;;;;;19.87;48.71;97673.94;4989131;28;20045;-75
2023/06/28 09:30:53;;;;;;;0.05;0.05;;;;;;;20.10;47.70;97681.81;4994975;28;20088;-76
2023/06/28 09:33:21;;;;;;;0.00;0.00;;;;;;;20.25;46.60;97674.91;4987593;28;20047;-76
2023/06/28 09:35:53;;;;;;;0.00;0.00;;;;;;;20.65;44.67;97675.38;4997428;28;20137;-75
2023/06/28 09:38:21;;;;;;;0.00;0.00;;;;;;;20.20;45.49;97672.97;4993085;28;20053;-72
2023/06/28 09:40:55;;;;;;;0.00;0.00;;;;;;;20.49;45.42;97662.72;4988776;28;20042;-75
2023/06/28 09:43:22;;;;;;;0.00;0.00;;;;;;;20.58;44.41;97660.38;4987652;28;20054;-76
2023/06/28 09:45:50;;;;;;;0.10;0.10;;;;;;;21.11;42.64;97664.88;4998716;28;20049;-75
2023/06/28 09:48:22;;;;;;;0.00;0.00;;;;;;;21.08;41.33;97665.41;4994199;28;20168;-75
2023/06/28 09:50:49;;;;;;;0.00;0.00;;;;;;;21.09;41.27;97667.03;4993045;28;20046;-74
2023/06/28 09:53:19;;;;;;;0.00;0.00;;;;;;;20.62;41.90;97667.75;4989913;28;20514;-75
2023/06/28 09:55:49;;;;;;;0.03;0.03;;;;;;;20.23;42.97;97666.22;4992266;28;20047;-75
2023/06/28 09:58:19;;;;;;;0.03;0.03;;;;;;;20.98;42.37;97662.59;4988788;28;20043;-77
2023/06/28 10:00:47;;;;;;;0.10;0.10;;;;;;;20.89;41.55;97656.84;4991830;28;20046;-75
2023/06/28 10:03:16;;;;;;;0.00;0.00;;;;;;;21.22;39.67;97658.50;4993498;28;20042;-75
2023/06/28 10:05:45;;;;;;;0.00;0.00;;;;;;;21.22;38.76;97658.50;4990491;28;20042;-75
2023/06/28 10:08:14;;;;;;;0.00;0.00;;;;;;;20.67;38.66;97665.06;4992412;28;20039;-75
2023/06/28 10:10:43;;;;;;;0.00;0.00;;;;;;;20.77;39.50;97648.88;4986852;28;20486;-75
2023/06/28 10:13:12;;;;;;;0.10;0.10;;;;;;;20.97;40.01;97650.16;4991991;28;20053;-75
2023/06/28 10:15:45;;;;;;;0.10;0.10;;;;;;;21.27;37.74;97655.81;4996967;28;20042;-75
2023/06/28 10:18:13;;;;;;;0.00;0.00;;;;;;;21.32;38.14;97658.56;4993362;28;20060;-75
2023/06/28 10:20:41;;;;;;;0.10;0.10;;;;;;;21.40;38.57;97651.81;4993734;28;20410;-76
2023/06/28 10:23:10;;;;;;;0.00;0.00;;;;;;;21.54;36.29;97659.25;4990199;28;20054;-75
2023/06/28 10:25:39;;;;;;;0.00;0.00;;;;;;;21.50;36.44;97651.88;5000431;28;20042;-75
2023/06/28 10:28:07;;;;;;;0.08;0.08;;;;;;;21.82;37.25;97654.47;4993873;28;20052;-75
2023/06/28 10:30:34;;;;;;;0.00;0.00;;;;;;;21.45;38.06;97651.84;4993502;28;20069;-75
2023/06/28 10:33:03;;;;;;;0.08;0.08;;;;;;;21.77;37.83;97649.84;4988012;28;20039;-75
2023/06/28 10:35:31;;;;;;;0.10;0.10;;;;;;;22.19;36.68;97640.78;4992054;28;20457;-75
2023/06/28 10:37:59;;;;;;;0.00;0.00;;;;;;;22.10;36.59;97648.66;4993656;28;20416;-75
2023/06/28 10:40:27;;;;;;;0.00;0.00;;;;;;;22.25;36.68;97645.97;4990933;28;20060;-75
2023/06/28 10:42:54;;;;;;;0.00;0.00;;;;;;;22.26;36.31;97650.31;4996093;28;20050;-75
2023/06/28 10:45:32;;;;;;;0.00;0.00;;;;;;;21.70;37.44;97643.03;4988700;28;20034;-75
2023/06/28 10:48:01;;;;;;;0.00;0.00;;;;;;;21.49;37.78;97642.09;4990329;28;20389;-76
2023/06/28 10:50:40;;;;;;;0.00;0.00;;;;;;;21.69;37.59;97641.41;4992955;28;20513;-76
2023/06/28 10:53:19;;;;;;;0.10;0.10;;;;;;;22.27;37.26;97642.97;4989582;28;20043;-75
2023/06/28 10:56:10;;;;;;;0.00;0.00;;;;;;;21.88;38.26;97634.41;4997722;28;20038;-75
2023/06/28 10:58:39;;;;;;;0.00;0.00;;;;;;;22.28;36.59;97642.72;4988941;28;20081;-75
2023/06/28 11:01:07;;;;;;;0.10;0.10;;;;;;;21.92;36.10;97649.09;4991223;28;20077;-76
2023/06/28 11:03:40;;;;;;;0.00;0.00;;;;;;;22.36;36.43;97640.53;4999129;28;20560;-75
2023/06/28 11:06:09;;;;;;;0.00;0.00;;;;;;;22.67;35.96;97644.94;4988289;28;20062;-76
2023/06/28 11:08:40;;;;;;;0.00;0.00;;;;;;;22.82;35.39;97638.75;4992523;28;20133;-76
2023/06/28 11:11:09;;;;;;;0.08;0.08;;;;;;;22.71;35.31;97635.16;4989339;28;20046;-76
2023/06/28 11:13:46;;;;;;;0.03;0.03;;;;;;;22.27;35.81;97642.97;4988660;28;20438;-76
2023/06/28 11:16:20;;;;;;;0.10;0.10;;;;;;;22.21;36.12;97647.59;4989911;28;20061;-76
2023/06/28 11:18:48;;;;;;;0.00;0.00;;;;;;;22.31;35.87;97639.47;4986820;28;20129;-76
2023/06/28 11:21:19;;;;;;;0.00;0.00;;;;;;;22.37;35.27;97642.19;4989931;28;20054;-75
2023/06/28 11:23:47;;;;;;;0.05;0.05;;;;;;;22.81;34.15;97639.81;4991404;28;20050;-76
2023/06/28 11:26:16;;;;;;;0.00;0.00;;;;;;;23.09;34.40;97635.72;4990238;28;20046;-73
2023/06/28 11:28:49;;;;;;;0.03;0.03;;;;;;;23.47;33.19;97646.00;4989541;28;20044;-73
2023/06/28 11:31:19;;;;;;;0.00;0.00;;;;;;;23.75;33.23;97634.53;4989571;28;20064;-73
2023/06/28 11:33:50;;;;;;;0.00;0.00;;;;;;;23.96;32.66;97635.25;4992039;28;20049;-74
2023/06/28 11:36:23;;;;;;;0.00;0.00;;;;;;;23.92;33.28;97634.16;4991896;28;20156;-75
2023/06/28 11:38:51;;;;;;;0.00;0.00;;;;;;;23.76;33.02;97638.88;4988619;28;20039;-74
2023/06/28 11:41:18;;;;;;;0.00;0.00;;;;;;;24.02;32.90;97639.56;4987886;28;20397;-74